createdAt,value
2022-08-01T00:01:18.106Z,101218.53
2022-08-01T00:03:47.508Z,101210.00
2022-08-01T00:06:15.545Z,101203.94
2022-08-01T00:08:43.717Z,101205.00
2022-08-01T00:11:11.826Z,101212.28
2022-08-01T00:13:39.878Z,101217.22
2022-08-01T00:16:07.929Z,101213.56
2022-08-01T00:18:36.640Z,101217.44
2022-08-01T00:21:06.565Z,101212.72
2022-08-01T00:23:34.540Z,101209.44
2022-08-01T00:26:02.708Z,101213.09
2022-08-01T00:28:30.748Z,101213.09
2022-08-01T00:30:58.696Z,101218.88
2022-08-01T00:33:26.800Z,101219.72
2022-08-01T00:35:54.927Z,101219.06
2022-08-01T00:38:24.489Z,101211.56
2022-08-01T00:40:54.737Z,101210.44
2022-08-01T00:43:22.742Z,101214.09
2022-08-01T00:45:50.942Z,101221.78
2022-08-01T00:48:18.996Z,101216.41
2022-08-01T00:50:47.525Z,101207.41
2022-08-01T00:53:18.836Z,101217.69
2022-08-01T00:55:49.690Z,101212.31
2022-08-01T00:58:17.935Z,101211.44
2022-08-01T01:00:53.646Z,101215.28
2022-08-01T01:03:49.332Z,101215.28
2022-08-01T01:06:29.093Z,101216.34
2022-08-01T01:09:14.121Z,101210.78
2022-08-01T01:11:51.085Z,101214.63
2022-08-01T01:14:29.685Z,101213.75
2022-08-01T01:17:00.679Z,101212.25
2022-08-01T01:19:35.332Z,101213.97
2022-08-01T01:22:19.021Z,101209.66
2022-08-01T01:24:59.151Z,101212.81
2022-08-01T01:27:44.820Z,101211.97
2022-08-01T01:30:14.546Z,101210.44
2022-08-01T01:32:47.299Z,101211.31
2022-08-01T01:35:19.643Z,101209.78
2022-08-01T01:37:49.905Z,101213.81
2022-08-01T01:40:19.873Z,101211.03
2022-08-01T01:42:49.588Z,101211.03
2022-08-01T01:45:20.242Z,101223.03
2022-08-01T01:47:48.701Z,101217.00
2022-08-01T01:50:17.446Z,101217.84
2022-08-01T01:52:48.010Z,101219.78
2022-08-01T01:55:18.307Z,101224.50
2022-08-01T01:57:47.732Z,101222.97
2022-08-01T02:00:17.561Z,101219.31
2022-08-01T02:02:48.085Z,101217.38
2022-08-01T02:05:17.203Z,101221.41
2022-08-01T02:07:46.859Z,101213.06
2022-08-01T02:10:19.330Z,101212.38
2022-08-01T02:12:51.030Z,101214.34
2022-08-01T02:15:21.298Z,101207.03
2022-08-01T02:17:53.650Z,101201.47
2022-08-01T02:20:21.577Z,101202.34
2022-08-01T02:22:53.289Z,101213.34
2022-08-01T02:25:25.949Z,101209.50
2022-08-01T02:28:01.716Z,101206.72
2022-08-01T02:30:34.754Z,101208.81
2022-08-01T02:33:15.726Z,101202.22
2022-08-01T02:36:29.144Z,101204.34
2022-08-01T02:38:39.812Z,101198.47
2022-08-01T02:41:10.662Z,101202.13
2022-08-01T02:43:40.737Z,101200.03
2022-08-01T02:46:13.378Z,101200.03
2022-08-01T02:48:45.657Z,101209.44
2022-08-01T02:51:17.032Z,101206.66
2022-08-01T02:53:46.912Z,101209.81
2022-08-01T02:56:16.026Z,101203.00
2022-08-01T02:58:45.202Z,101209.63
2022-08-01T03:01:15.683Z,101206.84
2022-08-01T03:03:45.767Z,101197.44
2022-08-01T03:06:15.319Z,101204.91
2022-08-01T03:08:44.750Z,101206.84
2022-08-01T03:11:14.747Z,101207.69
2022-08-01T03:13:44.769Z,101204.91
2022-08-01T03:16:15.486Z,101208.56
2022-08-01T03:18:47.030Z,101204.25
2022-08-01T03:21:16.337Z,101214.50
2022-08-01T03:23:45.930Z,101214.31
2022-08-01T03:26:14.242Z,101213.69
2022-08-01T03:28:44.941Z,101218.84
2022-08-01T03:31:16.150Z,101220.75
2022-08-01T03:33:45.623Z,101226.50
2022-08-01T03:36:16.148Z,101230.16
2022-08-01T03:38:47.246Z,101217.09
2022-08-01T03:41:22.002Z,101224.59
2022-08-01T03:43:57.104Z,101221.81
2022-08-01T03:46:32.178Z,101225.44
2022-08-01T03:49:08.078Z,101221.81
2022-08-01T03:51:36.580Z,101217.69
2022-08-01T03:54:06.435Z,101220.28
2022-08-01T03:56:35.753Z,101226.06
2022-08-01T03:59:05.268Z,101221.53
2022-08-01T04:01:34.544Z,101221.72
2022-08-01T04:04:06.337Z,101220.69
2022-08-01T04:06:34.408Z,101220.41
2022-08-01T04:09:02.532Z,101218.28
2022-08-01T04:11:30.541Z,101221.06
2022-08-01T04:13:58.811Z,101218.50
2022-08-01T04:16:26.973Z,101222.13
2022-08-01T04:18:54.937Z,101214.84
2022-08-01T04:21:28.720Z,101217.22
2022-08-01T04:24:00.470Z,101220.00
2022-08-01T04:26:30.580Z,101220.41
2022-08-01T04:28:59.118Z,101219.53
2022-08-01T04:31:30.057Z,101234.31
2022-08-01T04:34:04.053Z,101237.09
2022-08-01T04:36:35.572Z,101242.66
2022-08-01T04:39:06.051Z,101237.47
2022-08-01T04:41:36.850Z,101243.72
2022-08-01T04:44:05.494Z,101240.06
2022-08-01T04:46:35.743Z,101250.16
2022-08-01T04:49:04.154Z,101238.34
2022-08-01T04:51:33.611Z,101247.38
2022-08-01T04:54:02.049Z,101249.47
2022-08-01T04:56:30.035Z,101255.03
2022-08-01T04:59:15.557Z,101256.09
2022-08-01T05:01:51.653Z,101257.63
2022-08-01T05:04:19.829Z,101266.53
2022-08-01T05:06:49.179Z,101263.19
2022-08-01T05:09:17.254Z,101270.88
2022-08-01T05:11:45.291Z,101272.78
2022-08-01T05:14:13.322Z,101264.44
2022-08-01T05:16:42.797Z,101274.72
2022-08-01T05:19:11.585Z,101269.31
2022-08-01T05:21:39.983Z,101266.53
2022-08-01T05:24:09.694Z,101273.84
2022-08-01T05:26:38.004Z,101265.91
2022-08-01T05:29:06.210Z,101270.59
2022-08-01T05:31:35.889Z,101267.81
2022-08-01T05:34:04.809Z,101278.06
2022-08-01T05:36:32.787Z,101275.28
2022-08-01T05:39:01.559Z,101280.69
2022-08-01T05:41:30.983Z,101285.16
2022-08-01T05:43:59.077Z,101289.03
2022-08-01T05:46:27.575Z,101284.28
2022-08-01T05:48:56.164Z,101282.38
2022-08-01T05:51:24.177Z,101282.38
2022-08-01T05:53:52.300Z,101286.03
2022-08-01T05:56:20.869Z,101286.69
2022-08-01T05:58:50.478Z,101291.03
2022-08-01T06:01:18.856Z,101290.84
2022-08-01T06:03:47.332Z,101288.69
2022-08-01T06:06:15.991Z,101289.56
2022-08-01T06:08:43.864Z,101292.16
2022-08-01T06:11:14.750Z,101289.00
2022-08-01T06:13:48.502Z,101291.59
2022-08-01T06:16:23.036Z,101299.16
2022-08-01T06:18:54.969Z,101287.34
2022-08-01T06:21:24.426Z,101292.56
2022-08-01T06:23:52.193Z,101284.84
2022-08-01T06:26:20.317Z,101280.81
2022-08-01T06:28:48.358Z,101276.78
2022-08-01T06:31:16.627Z,101277.50
2022-08-01T06:33:46.947Z,101276.53
2022-08-01T06:36:15.087Z,101274.63
2022-08-01T06:38:46.366Z,101278.53
2022-08-01T06:41:23.854Z,101277.72
2022-08-01T06:43:57.662Z,101273.69
2022-08-01T06:46:30.530Z,101279.09
2022-08-01T06:49:11.573Z,101283.19
2022-08-01T06:51:40.601Z,101280.41
2022-08-01T06:54:20.329Z,101272.34
2022-08-01T06:56:51.297Z,101275.13
2022-08-01T06:59:34.390Z,101289.78
2022-08-01T07:05:16.904Z,101287.53
2022-08-01T07:07:59.388Z,101290.97
2022-08-01T07:10:27.519Z,101291.38
2022-08-01T07:13:09.781Z,101296.19
2022-08-01T07:15:51.209Z,101292.53
2022-08-01T07:18:32.786Z,101277.88
2022-08-01T07:22:34.118Z,101288.75
2022-08-01T07:41:52.664Z,101301.81
2022-08-01T07:48:13.643Z,101300.16
2022-08-01T07:54:00.122Z,101314.25
2022-08-01T07:56:33.403Z,101314.44
2022-08-01T07:59:05.779Z,101311.53
2022-08-01T08:02:10.528Z,101309.63
2022-08-01T08:04:53.467Z,101313.28
2022-08-01T08:10:17.427Z,101307.78
2022-08-01T08:13:10.616Z,101309.09
2022-08-01T08:16:15.170Z,101314.72
2022-08-01T08:20:09.580Z,101313.66
2022-08-01T08:33:41.857Z,101329.91
2022-08-01T08:36:12.461Z,101328.59
2022-08-01T08:38:41.357Z,101331.19
2022-08-01T08:41:10.329Z,101327.97
2022-08-01T08:43:38.368Z,101335.72
2022-08-01T08:46:09.940Z,101330.13
2022-08-01T08:48:39.535Z,101328.66
2022-08-01T08:51:09.673Z,101333.38
2022-08-01T08:53:44.351Z,101332.75
2022-08-01T08:56:15.048Z,101332.78
2022-08-01T08:58:45.810Z,101327.19
2022-08-01T09:01:14.518Z,101335.38
2022-08-01T09:03:42.857Z,101329.56
2022-08-01T09:06:11.142Z,101320.72
2022-08-01T09:08:40.501Z,101334.09
2022-08-01T09:11:08.570Z,101327.19
2022-08-01T09:13:36.642Z,101334.72
2022-08-01T09:16:19.278Z,101332.09
2022-08-01T09:18:53.633Z,101338.97
2022-08-01T09:21:25.240Z,101341.28
2022-08-01T09:23:59.747Z,101343.84
2022-08-01T09:26:31.942Z,101347.84
2022-08-01T09:29:01.340Z,101349.94
2022-08-01T09:31:38.557Z,101353.53
2022-08-01T09:34:08.543Z,101347.88
2022-08-01T09:36:54.351Z,101346.47
2022-08-01T09:39:25.727Z,101345.50
2022-08-01T09:41:55.037Z,101349.50
2022-08-01T09:44:44.060Z,101336.66
2022-08-01T09:47:15.523Z,101339.81
2022-08-01T09:49:50.548Z,101352.00
2022-08-01T09:52:25.922Z,101349.50
2022-08-01T09:54:57.970Z,101355.25
2022-08-01T09:57:26.261Z,101348.34
2022-08-01T09:59:58.864Z,101346.91
2022-08-01T10:02:31.324Z,101342.09
2022-08-01T10:05:09.033Z,101338.56
2022-08-01T10:07:43.841Z,101339.09
2022-08-01T10:10:16.001Z,101344.41
2022-08-01T10:12:45.835Z,101336.84
2022-08-01T10:15:18.053Z,101338.06
2022-08-01T10:17:57.537Z,101334.34
2022-08-01T10:20:30.960Z,101334.97
2022-08-01T10:23:06.058Z,101329.75
2022-08-01T10:25:46.680Z,101334.41
2022-08-01T10:28:21.506Z,101344.34
2022-08-01T10:30:53.310Z,101342.16
2022-08-01T10:33:52.664Z,101347.69
2022-08-01T10:36:12.507Z,101344.88
2022-08-01T10:38:42.368Z,101339.13
2022-08-01T10:41:16.727Z,101340.00
2022-08-01T10:43:46.871Z,101335.00
2022-08-01T10:46:15.486Z,101335.00
2022-08-01T10:48:52.163Z,101340.13
2022-08-01T10:51:22.417Z,101334.38
2022-08-01T10:54:11.775Z,101332.03
2022-08-01T10:56:46.257Z,101331.19
2022-08-01T10:59:50.312Z,101331.03
2022-08-01T11:02:11.317Z,101328.31
2022-08-01T11:04:56.084Z,101340.66
2022-08-01T11:07:37.181Z,101341.13
2022-08-01T11:10:14.839Z,101333.41
2022-08-01T11:12:45.307Z,101333.00
2022-08-01T11:15:30.219Z,101323.94
2022-08-01T11:18:01.222Z,101329.03
2022-08-01T11:20:32.483Z,101330.34
2022-08-01T11:23:18.619Z,101331.94
2022-08-01T11:26:10.339Z,101328.00
2022-08-01T11:28:50.337Z,101332.75
2022-08-01T11:31:30.329Z,101324.72
2022-08-01T11:34:05.419Z,101323.41
2022-08-01T11:36:57.538Z,101327.44
2022-08-01T11:39:21.843Z,101329.16
2022-08-01T11:41:50.460Z,101318.09
2022-08-01T11:44:26.753Z,101316.94
2022-08-01T11:47:08.611Z,101318.63
2022-08-01T11:49:51.511Z,101317.31
2022-08-01T11:52:21.841Z,101314.50
2022-08-01T11:54:52.627Z,101313.53
2022-08-01T11:57:23.585Z,101311.75
2022-08-01T12:00:02.466Z,101312.97
2022-08-01T12:02:40.553Z,101313.34
2022-08-01T12:05:12.057Z,101303.72
2022-08-01T12:07:42.848Z,101308.88
2022-08-01T12:10:12.686Z,101310.47
2022-08-01T12:12:46.111Z,101309.31
2022-08-01T12:15:15.789Z,101315.06
2022-08-01T12:17:58.668Z,101321.94
2022-08-01T12:20:31.269Z,101317.28
2022-08-01T12:23:01.425Z,101315.44
2022-08-01T12:25:29.740Z,101316.69
2022-08-01T12:28:02.188Z,101321.13
2022-08-01T12:30:36.049Z,101314.97
2022-08-01T12:33:06.143Z,101324.03
2022-08-01T12:35:34.687Z,101310.59
2022-08-01T12:38:05.291Z,101309.84
2022-08-01T12:40:34.613Z,101303.97
2022-08-01T12:43:04.482Z,101308.91
2022-08-01T12:45:36.637Z,101316.84
2022-08-01T12:48:10.108Z,101317.47
2022-08-01T12:50:39.885Z,101317.47
2022-08-01T12:53:08.924Z,101319.69
2022-08-01T12:55:58.792Z,101310.13
2022-08-01T12:58:33.805Z,101307.81
2022-08-01T13:01:08.537Z,101318.47
2022-08-01T13:03:36.697Z,101302.50
2022-08-01T13:06:13.469Z,101308.50
2022-08-01T13:08:41.607Z,101306.44
2022-08-01T13:11:15.369Z,101318.28
2022-08-01T13:13:48.327Z,101317.19
2022-08-01T13:16:30.962Z,101315.03
2022-08-01T13:19:07.866Z,101310.69
2022-08-01T13:21:53.721Z,101311.56
2022-08-01T13:24:27.930Z,101311.97
2022-08-01T13:27:01.473Z,101312.41
2022-08-01T13:29:34.416Z,101315.22
2022-08-01T13:32:27.856Z,101314.59
2022-08-01T13:35:03.968Z,101323.56
2022-08-01T13:37:32.370Z,101314.13
2022-08-01T13:40:00.531Z,101317.19
2022-08-01T13:42:30.156Z,101314.00
2022-08-01T13:44:58.223Z,101312.78
2022-08-01T13:47:31.979Z,101316.69
2022-08-01T13:50:03.935Z,101323.28
2022-08-01T13:52:32.688Z,101316.66
2022-08-01T13:55:00.947Z,101318.00
2022-08-01T13:57:36.267Z,101318.50
2022-08-01T14:00:07.389Z,101322.66
2022-08-01T14:02:41.606Z,101321.78
2022-08-01T14:05:09.870Z,101318.00
2022-08-01T14:07:38.347Z,101323.84
2022-08-01T14:10:20.002Z,101321.47
2022-08-01T14:12:48.516Z,101317.81
2022-08-01T14:15:36.818Z,101321.81
2022-08-01T14:18:06.886Z,101326.13
2022-08-01T14:20:35.381Z,101316.44
2022-08-01T14:23:03.356Z,101307.38
2022-08-01T14:26:00.241Z,101316.06
2022-08-01T14:28:19.701Z,101314.56
2022-08-01T14:30:47.626Z,101317.63
2022-08-01T14:33:17.095Z,101317.63
2022-08-01T14:36:01.466Z,101323.97
2022-08-01T14:38:34.340Z,101318.81
2022-08-01T14:41:04.634Z,101318.22
2022-08-01T14:43:34.169Z,101328.00
2022-08-01T14:46:04.484Z,101317.47
2022-08-01T14:48:34.170Z,101320.97
2022-08-01T14:51:03.621Z,101318.94
2022-08-01T14:53:34.231Z,101321.19
2022-08-01T14:56:04.710Z,101316.38
2022-08-01T14:58:32.712Z,101316.31
2022-08-01T15:01:01.496Z,101319.44
2022-08-01T15:03:29.721Z,101321.47
2022-08-01T15:05:59.154Z,101325.00
2022-08-01T15:08:27.437Z,101325.88
2022-08-01T15:10:55.416Z,101329.16
2022-08-01T15:13:23.383Z,101327.03
2022-08-01T15:15:51.426Z,101326.88
2022-08-01T15:18:19.395Z,101327.34
2022-08-01T15:20:47.499Z,101330.63
2022-08-01T15:23:16.881Z,101331.72
2022-08-01T15:25:44.890Z,101335.19
2022-08-01T15:28:13.452Z,101338.72
2022-08-01T15:30:41.517Z,101336.59
2022-08-01T15:33:09.679Z,101340.09
2022-08-01T15:35:37.899Z,101336.50
2022-08-01T15:38:05.885Z,101341.09
2022-08-01T15:40:35.647Z,101351.22
2022-08-01T15:43:04.574Z,101346.38
2022-08-01T15:45:48.851Z,101347.50
2022-08-01T15:48:17.584Z,101353.38
2022-08-01T15:50:45.998Z,101355.16
2022-08-01T15:53:14.173Z,101356.06
2022-08-01T15:55:46.622Z,101360.38
2022-08-01T15:58:21.049Z,101354.16
2022-08-01T16:00:49.057Z,101367.78
2022-08-01T16:03:17.054Z,101358.94
2022-08-01T16:05:45.151Z,101357.69
2022-08-01T16:08:13.836Z,101361.78
2022-08-01T16:10:43.713Z,101355.31
2022-08-01T16:13:12.934Z,101356.88
2022-08-01T16:15:41.744Z,101351.69
2022-08-01T16:18:13.030Z,101349.75
2022-08-01T16:20:45.541Z,101351.28
2022-08-01T16:23:14.665Z,101352.13
2022-08-01T16:25:44.975Z,101355.38
2022-08-01T16:28:14.080Z,101360.31
2022-08-01T16:30:48.585Z,101352.78
2022-08-01T16:33:45.843Z,101363.13
2022-08-01T16:36:17.499Z,101352.78
2022-08-01T16:38:45.706Z,101353.41
2022-08-01T16:41:19.002Z,101352.72
2022-08-01T16:43:53.732Z,101361.16
2022-08-01T16:46:22.474Z,101359.22
2022-08-01T16:48:50.586Z,101359.84
2022-08-01T16:51:19.909Z,101356.59
2022-08-01T16:53:47.934Z,101352.72
2022-08-01T16:56:17.540Z,101355.69
2022-08-01T16:58:45.948Z,101348.38
2022-08-01T17:01:58.085Z,101351.81
2022-08-01T17:04:02.416Z,101354.41
2022-08-01T17:06:30.955Z,101354.81
2022-08-01T17:08:59.316Z,101358.50
2022-08-01T17:11:28.704Z,101362.34
2022-08-01T17:13:56.877Z,101359.78
2022-08-01T17:16:24.942Z,101359.78
2022-08-01T17:18:53.293Z,101359.78
2022-08-01T17:21:21.281Z,101356.13
2022-08-01T17:23:49.366Z,101357.19
2022-08-01T17:26:17.363Z,101360.22
2022-08-01T17:28:46.802Z,101356.56
2022-08-01T17:31:14.838Z,101367.31
2022-08-01T17:33:45.386Z,101366.91
2022-08-01T17:36:15.293Z,101372.09
2022-08-01T17:38:43.295Z,101367.81
2022-08-01T17:41:11.384Z,101369.13
2022-08-01T17:43:39.320Z,101363.09
2022-08-01T17:46:09.535Z,101362.22
2022-08-01T17:48:37.624Z,101359.25
2022-08-01T17:51:06.446Z,101350.41
2022-08-01T17:53:34.862Z,101347.44
2022-08-01T17:56:05.798Z,101352.38
2022-08-01T17:58:51.904Z,101353.28
2022-08-01T18:01:26.846Z,101354.38
2022-08-01T18:03:57.607Z,101358.72
2022-08-01T18:06:27.273Z,101355.69
2022-08-01T18:08:59.365Z,101349.91
2022-08-01T18:11:27.903Z,101355.28
2022-08-01T18:13:57.011Z,101356.59
2022-08-01T18:16:29.092Z,101358.09
2022-08-01T18:18:57.750Z,101371.69
2022-08-01T18:21:25.895Z,101362.00
2022-08-01T18:23:53.915Z,101367.19
2022-08-01T18:26:22.432Z,101376.03
2022-08-01T18:28:50.971Z,101375.84
2022-08-01T18:31:20.771Z,101376.25
2022-08-01T18:33:50.296Z,101381.22
2022-08-01T18:36:33.201Z,101377.16
2022-08-01T18:39:04.547Z,101379.72
2022-08-01T18:41:33.114Z,101392.25
2022-08-01T18:44:05.560Z,101384.25
2022-08-01T18:46:37.617Z,101391.16
2022-08-01T18:49:10.222Z,101392.25
2022-08-01T18:51:43.737Z,101392.19
2022-08-01T18:54:15.495Z,101401.91
2022-08-01T18:56:44.445Z,101404.47
2022-08-01T18:59:13.281Z,101397.59
2022-08-01T19:01:41.459Z,101402.75
2022-08-01T19:04:11.103Z,101402.09
2022-08-01T19:06:40.363Z,101402.97
2022-08-01T19:09:09.248Z,101399.97
2022-08-01T19:11:38.229Z,101395.00
2022-08-01T19:14:06.497Z,101405.78
2022-08-01T19:16:35.095Z,101407.47
2022-08-01T19:19:07.054Z,101410.72
2022-08-01T19:21:38.507Z,101402.41
2022-08-01T19:24:22.965Z,101418.41
2022-08-01T19:26:53.517Z,101418.81
2022-08-01T19:29:23.866Z,101420.94
2022-08-01T19:32:01.364Z,101418.56
2022-08-01T19:34:31.058Z,101432.97
2022-08-01T19:37:00.480Z,101435.97
2022-08-01T19:39:28.873Z,101437.69
2022-08-01T19:41:59.482Z,101444.75
2022-08-01T19:44:29.685Z,101434.00
2022-08-01T19:46:57.809Z,101433.97
2022-08-01T19:49:26.284Z,101438.06
2022-08-01T19:51:56.890Z,101441.06
2022-08-01T19:54:30.209Z,101441.47
2022-08-01T19:57:01.818Z,101442.09
2022-08-01T19:59:33.192Z,101445.66
2022-08-01T20:02:01.440Z,101450.16
2022-08-01T20:04:29.945Z,101447.56
2022-08-01T20:06:58.089Z,101462.84
2022-08-01T20:09:28.698Z,101454.66
2022-08-01T20:11:56.922Z,101458.28
2022-08-01T20:14:26.605Z,101465.81
2022-08-01T20:16:56.343Z,101457.16
2022-08-01T20:19:25.722Z,101458.84
2022-08-01T20:22:02.629Z,101460.78
2022-08-01T20:24:40.948Z,101463.97
2022-08-01T20:27:11.355Z,101471.25
2022-08-01T20:29:40.251Z,101468.84
2022-08-01T20:32:09.532Z,101471.19
2022-08-01T20:34:40.670Z,101474.19
2022-08-01T20:37:13.140Z,101477.59
2022-08-01T20:39:45.101Z,101467.69
2022-08-01T20:42:14.654Z,101477.06
2022-08-01T20:44:43.373Z,101480.03
2022-08-01T20:47:11.961Z,101479.56
2022-08-01T20:49:43.385Z,101474.41
2022-08-01T20:52:13.625Z,101480.38
2022-08-01T20:54:45.220Z,101474.13
2022-08-01T20:57:20.463Z,101472.81
2022-08-01T20:59:56.847Z,101474.09
2022-08-01T21:02:42.578Z,101466.31
2022-08-01T21:05:12.141Z,101480.88
2022-08-01T21:07:44.242Z,101477.44
2022-08-01T21:10:16.125Z,101481.69
2022-08-01T21:12:47.394Z,101483.16
2022-08-01T21:15:25.671Z,101486.13
2022-08-01T21:17:58.992Z,101473.44
2022-08-01T21:20:29.846Z,101476.84
2022-08-01T21:23:09.769Z,101472.50
2022-08-01T21:25:39.334Z,101477.84
2022-08-01T21:28:07.428Z,101474.75
2022-08-01T21:30:37.119Z,101483.28
2022-08-01T21:33:06.281Z,101481.97
2022-08-01T21:35:35.832Z,101469.47
2022-08-01T21:38:04.583Z,101477.38
2022-08-01T21:40:34.287Z,101483.16
2022-08-01T21:43:04.822Z,101482.47
2022-08-01T21:45:32.894Z,101482.22
2022-08-01T21:48:02.068Z,101478.94
2022-08-01T21:50:40.141Z,101478.09
2022-08-01T21:53:17.335Z,101471.38
2022-08-01T21:56:15.080Z,101470.25
2022-08-01T21:58:52.777Z,101478.81
2022-08-01T22:01:28.282Z,101478.31
2022-08-01T22:04:00.606Z,101479.78
2022-08-01T22:06:29.571Z,101481.22
2022-08-01T22:09:01.367Z,101482.00
2022-08-01T22:11:31.360Z,101476.81
2022-08-01T22:14:04.966Z,101485.16
2022-08-01T22:16:34.638Z,101477.56
2022-08-01T22:19:04.334Z,101491.00
2022-08-01T22:21:34.200Z,101486.88
2022-08-01T22:24:05.099Z,101488.63
2022-08-01T22:26:34.622Z,101493.69
2022-08-01T22:29:06.052Z,101489.41
2022-08-01T22:31:37.942Z,101492.94
2022-08-01T22:34:07.004Z,101491.59
2022-08-01T22:36:35.022Z,101481.50
2022-08-01T22:39:03.087Z,101485.53
2022-08-01T22:42:01.373Z,101479.31
2022-08-01T22:44:30.592Z,101476.72
2022-08-01T22:47:04.377Z,101477.97
2022-08-01T22:49:36.138Z,101475.53
2022-08-01T22:52:12.958Z,101479.78
2022-08-01T22:54:42.713Z,101476.50
2022-08-01T22:57:15.650Z,101467.50
2022-08-01T22:59:49.782Z,101466.81
2022-08-01T23:02:19.758Z,101466.72
2022-08-01T23:04:49.690Z,101470.75
2022-08-01T23:07:21.379Z,101471.13
2022-08-01T23:09:54.180Z,101465.59
2022-08-01T23:12:24.407Z,101473.25
2022-08-01T23:14:55.635Z,101469.84
2022-08-01T23:17:26.286Z,101477.88
2022-08-01T23:19:58.460Z,101474.63
2022-08-01T23:22:29.484Z,101481.41
2022-08-01T23:25:05.180Z,101473.81
2022-08-01T23:27:51.435Z,101475.25
2022-08-01T23:30:27.634Z,101475.44
2022-08-01T23:32:55.798Z,101468.00
2022-08-01T23:35:24.288Z,101471.88
2022-08-01T23:37:53.643Z,101471.38
2022-08-01T23:40:24.721Z,101473.66
2022-08-01T23:42:54.669Z,101477.88
2022-08-01T23:45:23.271Z,101474.41
2022-08-01T23:47:53.395Z,101474.56
2022-08-01T23:50:22.525Z,101477.94
2022-08-01T23:52:51.446Z,101480.03
2022-08-01T23:58:01.005Z,101481.78
